Time;durP1;ratioP1;P1;durP2;ratioP2;P2;SDS_P1;SDS_P2;PMS_P1;PMS_P2;Temp;Humidity;BMP_temperature;BMP_pressure;BME280_temperature;BME280_humidity;BME280_pressure;Samples;Min_cycle;Max_cycle;Signal;HPM_P1;HPM_P2
2022/06/23 00:02:02;;;;;;;1.70;1.00;;;17.50;99.90;;;;;;5033882;28;20623;-73
2022/06/23 00:04:32;;;;;;;2.67;1.10;;;17.50;99.90;;;;;;5032340;28;20193;-73
2022/06/23 00:07:05;;;;;;;2.00;0.93;;;17.50;1.00;;;;;;5032806;28;20168;-73
2022/06/23 00:09:44;;;;;;;3.10;1.30;;;17.50;1.00;;;;;;5033618;28;20188;-73
2022/06/23 00:12:18;;;;;;;2.80;1.07;;;17.50;99.90;;;;;;5033873;28;20161;-73
2022/06/23 00:15:12;;;;;;;2.10;1.40;;;17.50;99.90;;;;;;5033320;28;20286;-73
2022/06/23 00:17:44;;;;;;;1.67;1.37;;;17.50;99.90;;;;;;5032354;28;20176;-73
2022/06/23 00:20:19;;;;;;;2.77;1.20;;;17.50;1.00;;;;;;5033900;28;20565;-73
2022/06/23 00:22:59;;;;;;;1.37;1.17;;;17.50;1.00;;;;;;5032235;28;20176;-73
2022/06/23 00:25:37;;;;;;;1.97;1.30;;;17.40;1.00;;;;;;5032051;28;20585;-73
2022/06/23 00:28:03;;;;;;;4.50;1.20;;;17.40;1.00;;;;;;5033642;28;20164;-73
2022/06/23 00:30:39;;;;;;;3.93;1.37;;;17.40;1.00;;;;;;5032064;28;20610;-73
2022/06/23 00:33:07;;;;;;;3.07;0.97;;;17.30;1.00;;;;;;5033264;28;20545;-73
2022/06/23 00:35:32;;;;;;;2.07;1.13;;;17.30;1.00;;;;;;5031959;28;20215;-73
2022/06/23 00:37:58;;;;;;;3.77;0.93;;;17.40;1.00;;;;;;5033342;28;20653;-73
2022/06/23 00:40:24;;;;;;;5.13;1.13;;;17.20;1.00;;;;;;5032034;28;20650;-73
2022/06/23 00:42:58;;;;;;;2.33;0.90;;;17.30;1.00;;;;;;5033297;28;20173;-73
2022/06/23 00:45:43;;;;;;;1.93;1.00;;;17.30;1.00;;;;;;5033277;28;20199;-73
2022/06/23 00:48:18;;;;;;;3.97;1.20;;;17.30;1.00;;;;;;5032003;28;20191;-73
2022/06/23 00:50:59;;;;;;;1.33;1.00;;;17.20;99.90;;;;;;5033570;28;20163;-72
2022/06/23 00:53:34;;;;;;;2.33;1.20;;;17.20;1.00;;;;;;5033359;28;20186;-73
2022/06/23 00:56:36;;;;;;;2.00;1.17;;;17.20;1.00;;;;;;5032986;28;20748;-73
2022/06/23 00:59:13;;;;;;;2.10;1.57;;;17.20;1.00;;;;;;5033108;28;20164;-73
2022/06/23 01:02:03;;;;;;;3.97;1.60;;;17.10;99.90;;;;;;5031944;28;20187;-73
2022/06/23 01:04:48;;;;;;;2.67;1.10;;;17.10;1.00;;;;;;5033362;28;20541;-73
2022/06/23 01:07:16;;;;;;;3.43;1.20;;;17.00;1.00;;;;;;5031757;28;20173;-73
2022/06/23 01:09:50;;;;;;;2.93;1.23;;;17.00;1.00;;;;;;5031595;28;20646;-73
2022/06/23 01:12:27;;;;;;;3.80;2.13;;;17.00;99.90;;;;;;5031752;28;20263;-73
2022/06/23 01:14:59;;;;;;;2.43;1.30;;;16.90;99.90;;;;;;5031557;28;20278;-73
2022/06/23 01:17:31;;;;;;;1.93;1.17;;;16.90;1.00;;;;;;5031574;28;20663;-73
2022/06/23 01:20:20;;;;;;;1.67;1.10;;;16.90;1.00;;;;;;5031632;28;20169;-73
2022/06/23 01:22:49;;;;;;;4.80;1.60;;;16.80;1.00;;;;;;5031623;28;20313;-73
2022/06/23 01:25:36;;;;;;;4.00;1.20;;;16.80;1.00;;;;;;5032730;28;20212;-73
2022/06/23 01:28:03;;;;;;;2.67;1.27;;;16.80;1.00;;;;;;5034766;28;20594;-73
2022/06/23 01:30:48;;;;;;;2.87;1.40;;;16.80;99.90;;;;;;5037038;28;20517;-73
2022/06/23 01:33:32;;;;;;;5.47;1.20;;;16.70;99.90;;;;;;5035597;28;20722;-73
2022/06/23 01:36:17;;;;;;;1.23;1.10;;;16.70;99.90;;;;;;5036545;28;20208;-73
2022/06/23 01:39:06;;;;;;;2.23;1.20;;;16.60;99.90;;;;;;5035446;28;20167;-73
2022/06/23 01:41:41;;;;;;;1.73;1.13;;;16.60;1.00;;;;;;5036609;28;20247;-73
2022/06/23 01:44:38;;;;;;;2.87;1.40;;;16.60;1.00;;;;;;5036491;28;20191;-73
2022/06/23 01:47:16;;;;;;;5.97;1.30;;;16.60;1.00;;;;;;5041623;22;20235;-77
2022/06/23 01:49:45;;;;;;;2.70;1.23;;;16.50;1.00;;;;;;5056956;28;20156;-77
2022/06/23 01:52:16;;;;;;;1.97;1.07;;;16.50;99.90;;;;;;5056713;28;20202;-77
2022/06/23 01:54:44;;;;;;;2.13;1.23;;;16.50;99.90;;;;;;5056503;28;20206;-77
2022/06/23 01:57:24;;;;;;;4.10;1.60;;;16.40;99.90;;;;;;5064554;28;20293;-77
2022/06/23 02:00:12;;;;;;;1.70;1.30;;;16.40;99.90;;;;;;5076542;28;20170;-77
2022/06/23 02:02:48;;;;;;;2.40;1.37;;;16.40;1.00;;;;;;5076641;28;20166;-77
2022/06/23 02:05:37;;;;;;;2.10;1.50;;;16.40;1.00;;;;;;5058542;28;20167;-77
2022/06/23 02:08:09;;;;;;;1.73;1.10;;;16.30;1.00;;;;;;5076598;28;20178;-77
2022/06/23 02:11:00;;;;;;;1.77;1.30;;;16.30;1.00;;;;;;5058573;28;20544;-78
2022/06/23 02:13:55;;;;;;;4.40;1.20;;;16.30;99.90;;;;;;5076686;28;20187;-77
2022/06/23 02:16:31;;;;;;;1.80;1.50;;;16.30;99.90;;;;;;5051202;28;20293;-77
2022/06/23 02:19:00;;;;;;;4.53;1.60;;;16.20;99.90;;;;;;5076292;28;20166;-77
2022/06/23 02:21:39;;;;;;;1.80;1.30;;;16.20;99.90;;;;;;5076498;28;20170;-77
2022/06/23 02:24:10;;;;;;;5.37;1.60;;;16.10;1.00;;;;;;5077588;28;20664;-77
2022/06/23 02:27:06;;;;;;;2.17;1.57;;;16.10;1.00;;;;;;5076066;28;20191;-77
2022/06/23 02:29:59;;;;;;;2.67;1.40;;;16.10;1.00;;;;;;5076022;28;20159;-77
2022/06/23 02:32:55;;;;;;;1.50;1.33;;;16.10;99.90;;;;;;5076542;28;20151;-77
2022/06/23 02:35:31;;;;;;;2.63;1.40;;;16.00;99.90;;;;;;5058346;28;20202;-78
2022/06/23 02:38:02;;;;;;;1.67;1.43;;;16.00;83.80;;;;;;5075893;28;20671;-77
2022/06/23 02:40:47;;;;;;;1.80;1.47;;;16.00;99.90;;;;;;5058283;28;20167;-77
2022/06/23 02:43:39;;;;;;;2.83;1.63;;;15.90;99.90;;;;;;5057781;28;20182;-77
2022/06/23 02:46:24;;;;;;;3.00;1.50;;;15.90;94.40;;;;;;5057983;28;20560;-77
2022/06/23 02:48:58;;;;;;;2.40;1.67;;;15.80;99.90;;;;;;5075812;28;20229;-77
2022/06/23 02:52:07;;;;;;;3.43;1.57;;;15.80;99.90;;;;;;5075944;28;20174;-77
2022/06/23 02:54:57;;;;;;;2.10;1.40;;;15.80;99.90;;;;;;5076356;28;20166;-77
2022/06/23 02:57:52;;;;;;;4.57;1.80;;;15.70;1.00;;;;;;5075068;28;20237;-76
2022/06/23 03:00:20;;;;;;;3.30;1.43;;;15.70;1.00;;;;;;5058048;28;20250;-77
2022/06/23 03:03:01;;;;;;;2.07;1.50;;;15.60;1.00;;;;;;5075869;28;20170;-77
2022/06/23 03:05:39;;;;;;;1.50;1.33;;;15.60;1.00;;;;;;5057769;28;20167;-77
2022/06/23 03:08:12;;;;;;;2.33;1.80;;;15.60;1.00;;;;;;5075390;28;20277;-78
2022/06/23 03:10:47;;;;;;;2.43;1.60;;;15.60;53.80;;;;;;5057595;28;20171;-77
2022/06/23 03:13:42;;;;;;;1.57;1.47;;;15.50;1.00;;;;;;5075760;28;20159;-77
2022/06/23 03:16:28;;;;;;;4.33;1.90;;;15.50;63.60;;;;;;5074833;28;20729;-77
2022/06/23 03:19:14;;;;;;;1.50;1.40;;;15.40;99.90;;;;;;5074940;28;20163;-77
2022/06/23 03:21:54;;;;;;;1.93;1.73;;;15.40;99.90;;;;;;5074905;28;20238;-77
2022/06/23 03:24:53;;;;;;;2.63;1.50;;;15.40;99.90;;;;;;5057352;28;20175;-77
2022/06/23 03:27:28;;;;;;;6.43;2.10;;;15.40;1.00;;;;;;5019106;28;20195;-77
2022/06/23 03:29:57;;;;;;;1.77;1.63;;;15.40;1.00;;;;;;5056865;28;20556;-77
2022/06/23 03:32:39;;;;;;;2.10;1.80;;;15.40;1.00;;;;;;5056778;28;20179;-77
2022/06/23 03:35:04;;;;;;;2.70;1.50;;;15.30;1.00;;;;;;5075340;28;20209;-79
2022/06/23 03:37:47;;;;;;;3.13;1.70;;;15.30;1.00;;;;;;5074625;28;20191;-76
2022/06/23 03:43:32;;;;;;;3.83;1.73;;;15.20;1.00;;;;;;5070329;28;20186;-78
2022/06/23 03:46:40;;;;;;;3.87;1.87;;;15.20;96.50;;;;;;5075290;28;20167;-77
2022/06/23 03:49:27;;;;;;;2.93;2.10;;;15.20;99.90;;;;;;5073547;28;20199;-77
2022/06/23 03:51:56;;;;;;;3.87;1.90;;;15.20;99.90;;;;;;5074815;28;20162;-76
2022/06/23 03:55:00;;;;;;;2.63;1.90;;;15.20;1.00;;;;;;5074881;28;20175;-76
2022/06/23 03:57:32;;;;;;;2.70;1.80;;;15.10;1.00;;;;;;5080613;28;20587;-77
2022/06/23 04:00:12;;;;;;;5.53;2.30;;;15.10;1.00;;;;;;5080350;28;20154;-78
2022/06/23 04:02:44;;;;;;;1.83;1.67;;;15.10;1.00;;;;;;5074400;28;20239;-78
2022/06/23 04:05:27;;;;;;;2.87;1.80;;;15.10;1.00;;;;;;5074409;28;20209;-77
2022/06/23 04:08:03;;;;;;;2.87;1.70;;;15.10;1.00;;;;;;5056144;28;20194;-77
2022/06/23 04:10:42;;;;;;;2.97;1.60;;;15.10;1.00;;;;;;5073787;28;20736;-77
2022/06/23 04:13:36;;;;;;;2.07;1.80;;;15.10;22.30;;;;;;5073906;28;20160;-76
2022/06/23 04:16:08;;;;;;;3.80;2.10;;;15.10;99.90;;;;;;5053220;28;20199;-77
2022/06/23 04:18:39;;;;;;;2.47;1.70;;;15.10;99.90;;;;;;5073803;28;20695;-77
2022/06/23 04:21:15;;;;;;;3.40;2.00;;;15.10;99.90;;;;;;5074241;28;20151;-77
2022/06/23 04:23:48;;;;;;;1.70;1.60;;;15.10;99.90;;;;;;5073667;28;20157;-77
2022/06/23 04:26:16;;;;;;;2.23;1.90;;;15.00;99.90;;;;;;5074588;28;20172;-76
2022/06/23 04:28:44;;;;;;;2.17;1.63;;;15.00;1.00;;;;;;5074828;28;20171;-78
2022/06/23 04:31:16;;;;;;;2.50;1.87;;;15.00;1.00;;;;;;5076300;28;20171;-78
2022/06/23 04:33:43;;;;;;;6.13;2.00;;;15.00;93.70;;;;;;5074550;28;20209;-78
2022/06/23 04:36:19;;;;;;;6.30;1.93;;;15.00;19.10;;;;;;5075866;28;20214;-77
2022/06/23 04:39:03;;;;;;;1.90;1.70;;;15.00;99.90;;;;;;5057959;28;20598;-77
2022/06/23 04:41:44;;;;;;;2.80;2.50;;;15.00;99.90;;;;;;5075680;28;20166;-77
2022/06/23 04:44:27;;;;;;;2.77;1.80;;;15.10;99.90;;;;;;5076287;28;20158;-78
2022/06/23 04:46:56;;;;;;;3.83;2.50;;;15.10;99.90;;;;;;5058728;28;20210;-77
2022/06/23 04:49:35;;;;;;;2.30;1.87;;;15.10;1.00;;;;;;5075926;28;20160;-78
2022/06/23 04:52:03;;;;;;;2.90;1.63;;;15.10;1.00;;;;;;5075048;28;20175;-77
2022/06/23 04:54:44;;;;;;;3.23;2.27;;;15.10;99.90;;;;;;5073305;28;20599;-77
2022/06/23 04:57:20;;;;;;;2.13;1.90;;;15.10;99.90;;;;;;5073459;28;20285;-77
2022/06/23 04:59:52;;;;;;;2.83;1.63;;;15.10;99.90;;;;;;5073219;28;20242;-74
2022/06/23 05:02:25;;;;;;;2.90;1.80;;;15.20;99.90;;;;;;5072865;28;20171;-76
2022/06/23 05:05:16;;;;;;;2.10;1.80;;;15.20;99.90;;;;;;5054814;28;20266;-75
2022/06/23 05:07:45;;;;;;;2.67;1.93;;;15.20;99.90;;;;;;5072990;28;20201;-75
2022/06/23 05:10:25;;;;;;;3.63;1.87;;;15.30;1.00;;;;;;5072720;28;20287;-76
2022/06/23 05:12:57;;;;;;;4.20;1.93;;;15.30;1.00;;;;;;5073220;28;20167;-76
2022/06/23 05:15:32;;;;;;;1.80;1.70;;;15.40;1.00;;;;;;5072791;28;20625;-76
2022/06/23 05:18:03;;;;;;;2.17;1.90;;;15.40;99.90;;;;;;5072935;28;20217;-76
2022/06/23 05:20:40;;;;;;;3.27;2.13;;;15.40;99.90;;;;;;5072972;28;20636;-75
2022/06/23 05:23:14;;;;;;;2.27;2.07;;;15.50;99.90;;;;;;5072810;28;20170;-75
2022/06/23 05:25:43;;;;;;;3.23;2.07;;;15.50;1.00;;;;;;5073045;28;20656;-75
2022/06/23 05:28:21;;;;;;;3.70;2.00;;;15.50;99.90;;;;;;5054600;28;20229;-76
2022/06/23 05:30:57;;;;;;;3.17;2.00;;;15.60;99.90;;;;;;5072609;28;20648;-75
2022/06/23 05:33:27;;;;;;;3.67;1.90;;;15.70;99.90;;;;;;5072539;28;20181;-76
2022/06/23 05:36:03;;;;;;;2.23;1.80;;;15.70;99.90;;;;;;5072791;28;20672;-75
2022/06/23 05:38:46;;;;;;;2.00;1.80;;;15.80;1.00;;;;;;5072438;28;20229;-76
2022/06/23 05:41:30;;;;;;;2.53;2.10;;;15.80;1.00;;;;;;5072933;28;20152;-76
2022/06/23 05:43:58;;;;;;;2.73;2.03;;;15.90;1.00;;;;;;5072490;28;20234;-76
2022/06/23 05:46:26;;;;;;;2.23;1.80;;;15.90;54.10;;;;;;5072294;28;20601;-75
2022/06/23 05:48:58;;;;;;;4.33;2.00;;;16.00;1.00;;;;;;5072462;28;20653;-76
2022/06/23 05:51:38;;;;;;;1.90;1.63;;;16.10;1.00;;;;;;5072454;28;20167;-76
2022/06/23 05:54:30;;;;;;;4.13;2.00;;;16.20;99.90;;;;;;5072419;28;20232;-76
2022/06/23 05:57:34;;;;;;;2.97;2.00;;;16.30;99.90;;;;;;5054333;28;20207;-75
2022/06/23 06:00:17;;;;;;;3.67;2.10;;;16.40;99.90;;;;;;5054388;28;20174;-76
2022/06/23 06:02:56;;;;;;;3.27;1.57;;;16.40;1.00;;;;;;5054391;28;20213;-76
2022/06/23 06:05:34;;;;;;;3.13;2.30;;;16.60;99.90;;;;;;5054326;28;20166;-76
2022/06/23 06:08:05;;;;;;;4.07;1.83;;;16.70;1.00;;;;;;5054270;28;20197;-75
2022/06/23 06:10:32;;;;;;;4.23;2.20;;;16.80;1.00;;;;;;5054912;28;20178;-75
2022/06/23 06:12:58;;;;;;;6.27;2.37;;;16.90;92.30;;;;;;5054304;28;20256;-76
2022/06/23 06:15:31;;;;;;;5.70;2.00;;;17.10;99.90;;;;;;5057757;28;20175;-75
2022/06/23 06:18:19;;;;;;;3.90;2.30;;;17.20;50.80;;;;;;5057800;28;20191;-76
2022/06/23 06:20:45;;;;;;;4.43;2.03;;;17.40;99.90;;;;;;5075931;28;20162;-75
2022/06/23 06:23:14;;;;;;;5.77;2.10;;;17.60;1.00;;;;;;5075663;28;20159;-76
2022/06/23 06:25:46;;;;;;;3.67;2.10;;;17.70;4.60;;;;;;5057679;28;20273;-76
2022/06/23 06:28:17;;;;;;;6.90;2.30;;;17.90;99.90;;;;;;5075975;28;20210;-76
2022/06/23 06:30:56;;;;;;;4.97;2.20;;;18.10;99.90;;;;;;5075493;28;20185;-74
2022/06/23 06:33:36;;;;;;;3.33;2.13;;;18.40;99.90;;;;;;5075386;28;20528;-75
2022/06/23 06:36:02;;;;;;;4.23;1.97;;;18.50;1.00;;;;;;5075672;28;20606;-76
2022/06/23 06:38:29;;;;;;;5.07;1.93;;;18.70;1.00;;;;;;5075387;28;20679;-75
2022/06/23 06:40:58;;;;;;;6.10;2.27;;;18.90;99.90;;;;;;5075668;28;20167;-75
2022/06/23 06:43:31;;;;;;;2.77;2.03;;;19.10;99.90;;;;;;5075431;28;20618;-75
2022/06/23 06:45:58;;;;;;;6.80;1.90;;;19.20;3.90;;;;;;5075655;28;20242;-76
2022/06/23 06:48:29;;;;;;;4.27;2.27;;;19.40;1.00;;;;;;5057337;28;20241;-76
2022/06/23 06:51:02;;;;;;;5.50;2.47;;;19.50;91.10;;;;;;5057579;28;20565;-76
2022/06/23 06:53:36;;;;;;;4.90;1.77;;;19.70;1.00;;;;;;5075185;28;20164;-77
2022/06/23 06:56:06;;;;;;;5.43;2.30;;;19.80;1.00;;;;;;5075593;28;20183;-76
2022/06/23 06:58:39;;;;;;;3.97;1.97;;;20.00;1.00;;;;;;5075197;28;20193;-76
2022/06/23 07:01:11;;;;;;;4.47;2.10;;;20.00;1.00;;;;;;5074990;28;20213;-76
2022/06/23 07:03:41;;;;;;;3.83;2.47;;;20.10;1.00;;;;;;5056976;28;20164;-76
2022/06/23 07:06:27;;;;;;;3.23;2.17;;;20.20;1.00;;;;;;5056786;28;20171;-75
2022/06/23 07:09:04;;;;;;;2.50;2.30;;;20.30;1.00;;;;;;5075163;28;20170;-76
2022/06/23 07:11:47;;;;;;;3.23;1.93;;;20.40;1.00;;;;;;5075161;28;20246;-76
2022/06/23 07:14:31;;;;;;;7.27;1.93;;;20.60;99.90;;;;;;5075061;28;20245;-77
2022/06/23 07:17:16;;;;;;;5.03;2.20;;;20.70;1.00;;;;;;5057153;28;20584;-76
2022/06/23 07:19:49;;;;;;;3.57;2.27;;;20.80;1.00;;;;;;5075584;28;20162;-77
2022/06/23 07:22:22;;;;;;;3.87;2.00;;;20.90;1.00;;;;;;5075177;28;20234;-77
2022/06/23 07:25:01;;;;;;;3.33;2.50;;;21.00;99.90;;;;;;5056272;28;20171;-76
2022/06/23 07:27:33;;;;;;;3.67;1.97;;;21.10;99.90;;;;;;5057667;28;20329;-77
2022/06/23 07:30:18;;;;;;;4.60;2.23;;;21.20;99.90;;;;;;5075069;28;20165;-76
2022/06/23 07:32:48;;;;;;;8.73;2.63;;;21.40;1.00;;;;;;5056729;28;20175;-76
2022/06/23 07:35:47;;;;;;;5.33;2.30;;;21.50;1.00;;;;;;5056674;28;20637;-77
2022/06/23 07:38:24;;;;;;;4.07;2.47;;;21.60;1.00;;;;;;5074563;28;20232;-76
2022/06/23 07:41:16;;;;;;;4.30;2.40;;;21.70;1.00;;;;;;5075244;28;20151;-76
2022/06/23 07:43:54;;;;;;;4.63;2.20;;;21.90;1.00;;;;;;5052743;28;20191;-77
2022/06/23 07:46:20;;;;;;;10.30;2.93;;;22.00;99.90;;;;;;5075479;28;20166;-77
2022/06/23 07:48:46;;;;;;;3.03;2.00;;;22.10;99.90;;;;;;5077698;28;20253;-77
2022/06/23 07:51:12;;;;;;;5.80;2.00;;;22.10;99.90;;;;;;5076407;28;20182;-77
2022/06/23 07:53:42;;;;;;;4.87;2.20;;;22.30;99.90;;;;;;5076144;28;20258;-77
2022/06/23 07:56:12;;;;;;;3.40;1.73;;;22.30;99.90;;;;;;5077996;28;20214;-77
2022/06/23 07:58:42;;;;;;;4.50;2.10;;;22.40;99.90;;;;;;5060175;28;20243;-78
2022/06/23 08:01:24;;;;;;;5.33;2.43;;;22.50;99.90;;;;;;5077499;28;20174;-77
2022/06/23 08:04:08;;;;;;;3.80;2.20;;;22.60;99.90;;;;;;5077212;28;20372;-77
2022/06/23 08:06:35;;;;;;;4.53;2.20;;;22.70;99.90;;;;;;5077084;28;20289;-77
2022/06/23 08:09:10;;;;;;;4.50;2.43;;;22.70;99.90;;;;;;5076389;28;20171;-77
2022/06/23 08:14:30;;;;;;;6.47;2.83;;;23.00;1.00;;;;;;5075834;28;20171;-77
2022/06/23 08:16:55;;;;;;;7.20;2.43;;;23.10;4.20;;;;;;5055837;28;20218;-77
2022/06/23 08:19:36;;;;;;;5.30;2.33;;;23.20;1.00;;;;;;5073909;28;20560;-77
2022/06/23 08:22:05;;;;;;;5.40;2.77;;;23.30;99.90;;;;;;5073909;28;20163;-77
2022/06/23 08:24:32;;;;;;;4.23;2.60;;;23.40;97.30;;;;;;5073697;28;20167;-77
2022/06/23 08:27:09;;;;;;;4.13;2.60;;;23.50;67.40;;;;;;5073561;28;20210;-77
2022/06/23 08:29:42;;;;;;;4.13;2.70;;;23.60;1.00;;;;;;5074035;28;20710;-75
2022/06/23 08:32:09;;;;;;;5.40;2.97;;;23.70;1.00;;;;;;5073831;28;20159;-77
2022/06/23 08:34:37;;;;;;;6.80;2.87;;;23.90;1.00;;;;;;5073918;28;20656;-78
2022/06/23 08:37:17;;;;;;;3.83;2.60;;;24.00;99.90;;;;;;5074614;28;20230;-77
2022/06/23 08:39:58;;;;;;;2.57;2.37;;;24.10;99.90;;;;;;5056134;28;20240;-77
2022/06/23 08:42:47;;;;;;;7.87;2.47;;;24.20;99.90;;;;;;5074863;28;20170;-77
2022/06/23 08:45:37;;;;;;;3.20;2.67;;;24.30;99.90;;;;;;5055597;28;20669;-77
2022/06/23 08:48:22;;;;;;;3.33;2.63;;;24.50;36.00;;;;;;5055627;28;20237;-77
2022/06/23 08:51:08;;;;;;;7.33;2.37;;;24.70;1.00;;;;;;5073834;28;20230;-78
2022/06/23 08:54:20;;;;;;;5.00;2.83;;;24.80;1.00;;;;;;5055645;28;20175;-77
2022/06/23 08:57:03;;;;;;;5.20;2.43;;;24.90;54.20;;;;;;5028488;28;20234;-77
2022/06/23 08:59:46;;;;;;;6.10;2.60;;;24.90;1.00;;;;;;5058429;28;20190;-78
2022/06/23 09:02:20;;;;;;;3.70;2.53;;;25.10;1.00;;;;;;5058524;28;20170;-77
2022/06/23 09:04:58;;;;;;;4.80;2.40;;;25.20;1.00;;;;;;5073885;28;20162;-77
2022/06/23 09:07:40;;;;;;;3.93;2.13;;;25.20;1.00;;;;;;5057104;28;20672;-78
2022/06/23 09:10:18;;;;;;;3.17;2.30;;;25.30;1.00;;;;;;5056480;28;20166;-77
2022/06/23 09:12:52;;;;;;;5.70;2.60;;;25.40;1.00;;;;;;5056803;28;20206;-77
2022/06/23 09:15:48;;;;;;;6.30;3.20;;;25.40;99.90;;;;;;5077491;28;20193;-77
2022/06/23 09:18:35;;;;;;;4.77;2.43;;;25.50;99.90;;;;;;5058046;28;20187;-78
2022/06/23 09:21:20;;;;;;;3.60;2.37;;;25.50;99.90;;;;;;5075764;28;20644;-77
2022/06/23 09:23:57;;;;;;;4.73;2.27;;;25.60;99.90;;;;;;5076587;28;20205;-77
2022/06/23 09:26:38;;;;;;;4.17;2.50;;;25.70;99.90;;;;;;5077044;28;20178;-77
2022/06/23 09:29:29;;;;;;;4.10;2.35;;;25.80;99.90;;;;;;5057653;28;20193;-78
2022/06/23 09:32:18;;;;;;;4.83;2.63;;;25.80;99.90;;;;;;5057899;28;20244;-77
2022/06/23 09:35:19;;;;;;;3.90;2.10;;;26.00;99.90;;;;;;5057732;28;20202;-78
2022/06/23 09:37:50;;;;;;;4.03;2.53;;;26.10;99.90;;;;;;5058423;28;20706;-77
2022/06/23 09:40:24;;;;;;;7.28;2.60;;;26.20;99.90;;;;;;5076973;28;20174;-77
2022/06/23 09:43:22;;;;;;;6.85;2.30;;;26.30;99.90;;;;;;5076010;28;20156;-78
2022/06/23 09:46:03;;;;;;;5.45;2.28;;;26.30;99.90;;;;;;5077564;28;20609;-78
2022/06/23 09:48:34;;;;;;;6.55;2.40;;;26.40;99.90;;;;;;5057924;28;20307;-77
2022/06/23 09:51:38;;;;;;;3.33;2.28;;;26.50;43.80;;;;;;5061913;28;20186;-78
2022/06/23 09:54:25;;;;;;;5.22;2.67;;;26.60;99.90;;;;;;5063457;28;20173;-79
2022/06/23 09:57:19;;;;;;;4.18;2.38;;;26.60;99.90;;;;;;5062388;28;20256;-77
2022/06/23 10:00:17;;;;;;;4.05;2.35;;;26.70;99.00;;;;;;5085913;28;20155;-78
2022/06/23 10:02:59;;;;;;;4.68;2.33;;;26.80;1.00;;;;;;5009356;28;20221;-78
2022/06/23 10:05:30;;;;;;;2.40;2.08;;;26.80;1.00;;;;;;5082587;28;20181;-78
2022/06/23 10:08:22;;;;;;;3.22;2.53;;;26.90;1.00;;;;;;5083180;28;20668;-79
2022/06/23 10:11:08;;;;;;;4.95;1.95;;;27.00;1.00;;;;;;5082037;28;20156;-78
2022/06/23 10:13:37;;;;;;;4.57;2.25;;;27.10;1.00;;;;;;5082089;28;20230;-78
2022/06/23 10:16:39;;;;;;;2.58;2.00;;;27.20;1.00;;;;;;5079935;28;20206;-78
2022/06/23 10:19:22;;;;;;;2.38;2.15;;;27.20;99.90;;;;;;5061616;28;20163;-79
2022/06/23 10:22:16;;;;;;;5.30;2.53;;;27.30;99.90;;;;;;5080087;28;20241;-79
2022/06/23 10:25:09;;;;;;;3.65;2.40;;;27.40;99.90;;;;;;5079367;28;20152;-78
2022/06/23 10:28:11;;;;;;;6.90;2.03;;;27.50;99.90;;;;;;5079204;28;20205;-77
2022/06/23 10:30:55;;;;;;;2.35;1.98;;;27.60;99.90;;;;;;5074318;28;20197;-78
2022/06/23 10:33:42;;;;;;;3.45;2.10;;;27.60;99.90;;;;;;5058706;28;20244;-77
2022/06/23 10:36:19;;;;;;;6.03;2.35;;;27.80;99.90;;;;;;5057821;28;20202;-77
2022/06/23 10:38:54;;;;;;;2.55;2.33;;;27.90;99.90;;;;;;5076032;28;20225;-77
2022/06/23 10:41:51;;;;;;;6.40;2.40;;;27.90;99.90;;;;;;5075722;28;20242;-77
2022/06/23 10:44:25;;;;;;;3.22;2.58;;;28.00;99.90;;;;;;5076015;28;20165;-77
2022/06/23 10:47:24;;;;;;;4.25;2.42;;;28.00;99.90;;;;;;5057475;28;20248;-77
2022/06/23 10:50:25;;;;;;;2.85;2.08;;;28.10;1.00;;;;;;5057876;28;20163;-78
2022/06/23 10:53:00;;;;;;;3.42;2.47;;;28.20;99.90;;;;;;5037249;28;20656;-77
2022/06/23 10:56:00;;;;;;;5.63;2.40;;;28.20;15.60;;;;;;5075827;28;20159;-76
2022/06/23 10:58:53;;;;;;;2.75;2.38;;;28.30;26.60;;;;;;5076465;28;20183;-77
2022/06/23 11:01:37;;;;;;;2.83;2.28;;;28.40;53.40;;;;;;5075465;28;20567;-77
2022/06/23 11:04:16;;;;;;;4.32;2.75;;;28.40;99.90;;;;;;5057712;28;20171;-78
2022/06/23 11:07:02;;;;;;;2.47;2.10;;;28.50;1.00;;;;;;5075586;28;20194;-78
2022/06/23 11:09:58;;;;;;;5.43;2.15;;;28.50;1.00;;;;;;5075765;28;20159;-77
2022/06/23 11:12:48;;;;;;;3.83;2.60;;;28.60;1.00;;;;;;5076195;28;20167;-78
2022/06/23 11:15:30;;;;;;;4.43;2.83;;;28.70;99.90;;;;;;5076769;28;20167;-78
2022/06/23 11:18:21;;;;;;;3.28;2.22;;;28.80;1.00;;;;;;5077974;28;20590;-78
2022/06/23 11:21:14;;;;;;;4.10;2.67;;;28.80;1.00;;;;;;5077360;28;20228;-78
2022/06/23 11:23:52;;;;;;;3.83;2.33;;;28.90;1.00;;;;;;5079661;28;20166;-78
2022/06/23 11:26:48;;;;;;;4.07;2.38;;;29.00;1.00;;;;;;5078740;28;20175;-78
2022/06/23 11:29:25;;;;;;;4.55;2.30;;;29.10;99.90;;;;;;5080761;28;20166;-77
2022/06/23 11:32:15;;;;;;;5.95;2.25;;;29.10;1.00;;;;;;5080160;28;20151;-78
2022/06/23 11:35:23;;;;;;;5.85;2.60;;;29.10;1.00;;;;;;5081979;28;20155;-77
2022/06/23 11:38:03;;;;;;;3.22;2.03;;;29.10;1.00;;;;;;5077305;28;20194;-78
2022/06/23 11:40:50;;;;;;;4.47;2.30;;;29.20;1.00;;;;;;5078965;28;20166;-78
2022/06/23 11:43:24;;;;;;;3.13;2.28;;;29.30;1.00;;;;;;5078773;28;20194;-79
2022/06/23 11:45:52;;;;;;;5.85;2.53;;;29.30;1.00;;;;;;5079799;28;20155;-78
2022/06/23 11:48:37;;;;;;;4.07;2.30;;;29.30;1.00;;;;;;5077921;28;20214;-79
2022/06/23 11:51:20;;;;;;;5.75;3.03;;;29.40;99.90;;;;;;5078485;28;20609;-78
2022/06/23 11:54:01;;;;;;;7.47;2.17;;;29.40;99.90;;;;;;5078544;28;20528;-78
2022/06/23 11:57:04;;;;;;;3.50;2.78;;;29.50;99.90;;;;;;5059855;28;20722;-78
2022/06/23 11:59:38;;;;;;;2.53;2.22;;;29.60;99.90;;;;;;5056105;28;20194;-77
2022/06/23 12:02:03;;;;;;;2.25;2.05;;;29.60;99.90;;;;;;5077850;28;20162;-78
2022/06/23 12:05:07;;;;;;;4.88;2.55;;;29.70;1.00;;;;;;5076949;28;20167;-78
2022/06/23 12:08:09;;;;;;;2.90;2.60;;;29.70;1.00;;;;;;5077387;28;20186;-78
2022/06/23 12:10:36;;;;;;;3.60;2.00;;;29.80;1.00;;;;;;5077633;28;20167;-77
2022/06/23 12:13:04;;;;;;;3.92;2.08;;;29.90;99.90;;;;;;5077234;28;20167;-78
2022/06/23 12:15:38;;;;;;;4.20;2.30;;;29.90;99.90;;;;;;5059326;28;20186;-77
2022/06/23 12:18:16;;;;;;;4.32;2.30;;;30.00;99.90;;;;;;5060327;28;20781;-77
2022/06/23 12:20:57;;;;;;;6.00;2.33;;;30.00;99.90;;;;;;5075084;28;20164;-77
2022/06/23 12:23:37;;;;;;;3.33;2.40;;;30.10;99.90;;;;;;5075114;28;20223;-78
2022/06/23 12:26:19;;;;;;;5.20;2.58;;;30.20;1.00;;;;;;5075752;28;20193;-77
2022/06/23 12:28:55;;;;;;;6.97;2.47;;;30.20;1.00;;;;;;5074485;28;20171;-77
2022/06/23 12:31:35;;;;;;;4.90;2.58;;;30.20;1.00;;;;;;5076724;28;20161;-78
2022/06/23 12:34:13;;;;;;;5.53;2.25;;;30.30;1.00;;;;;;5077674;28;20209;-76
2022/06/23 12:36:59;;;;;;;5.50;2.63;;;30.30;1.00;;;;;;5078593;28;20340;-77
2022/06/23 12:39:37;;;;;;;4.13;2.15;;;30.40;1.00;;;;;;5076283;28;20182;-78
2022/06/23 12:42:11;;;;;;;3.13;2.08;;;30.40;1.00;;;;;;5058943;28;20167;-77
2022/06/23 12:45:13;;;;;;;7.82;2.67;;;30.50;1.00;;;;;;5076499;28;20152;-78
2022/06/23 12:47:41;;;;;;;3.53;2.42;;;30.50;1.00;;;;;;5058721;28;20217;-76
2022/06/23 12:50:21;;;;;;;3.38;2.30;;;30.60;1.00;;;;;;5075236;28;20167;-78
2022/06/23 12:52:49;;;;;;;4.68;2.15;;;30.60;1.00;;;;;;5057500;28;20171;-77
2022/06/23 12:55:40;;;;;;;4.30;2.40;;;30.60;1.00;;;;;;5073829;28;20581;-78
2022/06/23 12:58:20;;;;;;;6.15;2.40;;;30.60;1.00;;;;;;5073553;28;20558;-77
2022/06/23 13:01:12;;;;;;;5.72;2.13;;;30.50;1.00;;;;;;5055876;28;20545;-77
2022/06/23 13:03:46;;;;;;;3.00;2.22;;;30.50;18.30;;;;;;5074266;28;20167;-77
2022/06/23 13:06:39;;;;;;;2.88;2.22;;;30.60;30.00;;;;;;5073846;28;20166;-74
2022/06/23 13:09:51;;;;;;;5.20;2.08;;;30.80;1.00;;;;;;5073359;28;20158;-76
2022/06/23 13:12:29;;;;;;;2.97;2.03;;;30.90;21.40;;;;;;5034189;28;20213;-77
2022/06/23 13:15:05;;;;;;;4.90;2.35;;;30.90;1.00;;;;;;5055368;28;20174;-77
2022/06/23 13:17:37;;;;;;;6.68;2.10;;;31.00;1.00;;;;;;5073296;28;20202;-76
2022/06/23 13:20:25;;;;;;;4.57;2.17;;;31.10;1.00;;;;;;5054994;28;20174;-76
2022/06/23 13:22:58;;;;;;;6.90;2.83;;;31.20;1.00;;;;;;5072854;28;20645;-76
2022/06/23 13:25:29;;;;;;;5.45;2.20;;;31.30;1.00;;;;;;5076916;28;20156;-76
2022/06/23 13:27:57;;;;;;;1.98;1.70;;;31.40;1.00;;;;;;5076801;28;20198;-77
2022/06/23 13:30:27;;;;;;;3.20;2.10;;;31.40;1.00;;;;;;5077067;28;20198;-77
2022/06/23 13:33:07;;;;;;;3.28;1.92;;;31.60;1.00;;;;;;5058821;28;20224;-76
2022/06/23 13:35:40;;;;;;;5.90;2.17;;;31.60;1.00;;;;;;5058647;28;20175;-77
2022/06/23 13:38:40;;;;;;;3.58;2.10;;;31.80;1.00;;;;;;5076610;28;20199;-76
2022/06/23 13:41:35;;;;;;;3.42;1.95;;;31.90;1.00;;;;;;5076886;28;20250;-76
2022/06/23 13:44:07;;;;;;;2.53;2.20;;;32.10;1.00;;;;;;5058593;28;20248;-75
2022/06/23 13:46:57;;;;;;;4.40;2.22;;;32.10;1.00;;;;;;5076306;28;20641;-75
2022/06/23 13:49:40;;;;;;;7.72;2.20;;;32.30;1.00;;;;;;5058582;28;20186;-77
2022/06/23 13:52:20;;;;;;;4.30;2.20;;;32.40;1.00;;;;;;5076393;28;20201;-76
2022/06/23 13:54:57;;;;;;;3.20;2.00;;;32.50;1.00;;;;;;5058441;28;20163;-76
2022/06/23 13:57:32;;;;;;;3.22;2.10;;;32.50;1.00;;;;;;5076264;28;20210;-76
2022/06/23 14:00:13;;;;;;;2.80;1.83;;;32.60;1.00;;;;;;5076223;28;20174;-76
2022/06/23 14:03:10;;;;;;;3.30;1.92;;;32.70;1.00;;;;;;5058338;28;20292;-75
2022/06/23 14:05:42;;;;;;;3.10;2.03;;;32.70;1.00;;;;;;5076237;28;20159;-77